createdAt,value
2023-03-29T00:02:05.212Z,88.56
2023-03-29T00:04:32.068Z,88.70
2023-03-29T00:07:04.742Z,88.71
2023-03-29T00:09:33.386Z,88.74
2023-03-29T00:12:01.568Z,88.94
2023-03-29T00:14:30.792Z,88.89
2023-03-29T00:16:58.718Z,89.01
2023-03-29T00:19:25.906Z,88.90
2023-03-29T00:21:52.673Z,88.98
2023-03-29T00:24:21.143Z,89.30
2023-03-29T00:26:48.414Z,89.12
2023-03-29T00:29:15.077Z,89.30
2023-03-29T00:31:41.730Z,89.25
2023-03-29T00:34:08.421Z,89.38
2023-03-29T00:36:35.068Z,89.50
2023-03-29T00:39:01.896Z,89.41
2023-03-29T00:41:28.552Z,89.43
2023-03-29T00:44:01.142Z,89.68
2023-03-29T00:46:30.356Z,89.61
2023-03-29T00:49:09.674Z,89.72
2023-03-29T00:51:41.419Z,89.83
2023-03-29T00:54:14.958Z,89.81
2023-03-29T00:56:46.724Z,89.71
2023-03-29T00:59:18.812Z,89.83
2023-03-29T01:01:45.336Z,89.87
2023-03-29T01:04:36.457Z,89.93
2023-03-29T01:07:18.800Z,90.03
2023-03-29T01:09:52.882Z,90.23
2023-03-29T01:12:32.786Z,90.17
2023-03-29T01:15:12.409Z,90.20
2023-03-29T01:17:40.541Z,90.33
2023-03-29T01:20:20.355Z,90.54
2023-03-29T01:23:27.454Z,90.42
2023-03-29T01:26:18.975Z,90.68
2023-03-29T01:28:51.766Z,90.50
2023-03-29T01:31:32.591Z,90.71
2023-03-29T01:34:07.654Z,90.80
2023-03-29T01:36:43.313Z,90.79
2023-03-29T01:39:09.934Z,90.79
2023-03-29T01:41:59.427Z,90.87
2023-03-29T01:44:31.895Z,90.59
2023-03-29T01:47:30.071Z,90.66
2023-03-29T01:50:05.644Z,90.66
2023-03-29T01:52:44.303Z,90.56
2023-03-29T01:55:18.574Z,90.52
2023-03-29T01:57:48.271Z,90.23
2023-03-29T02:00:19.245Z,90.31
2023-03-29T02:02:47.573Z,90.34
2023-03-29T02:05:16.667Z,90.36
2023-03-29T02:07:46.235Z,90.49
2023-03-29T02:10:14.640Z,90.42
2023-03-29T02:12:41.671Z,90.40
2023-03-29T02:15:14.841Z,90.38
2023-03-29T02:17:43.730Z,90.42
2023-03-29T02:20:22.555Z,90.33
2023-03-29T02:23:02.371Z,90.09
2023-03-29T02:25:29.625Z,90.08
2023-03-29T02:27:57.235Z,90.06
2023-03-29T02:30:30.508Z,89.95
2023-03-29T02:33:15.779Z,89.85
2023-03-29T02:35:54.639Z,89.99
2023-03-29T02:38:22.084Z,90.09
2023-03-29T02:40:48.876Z,90.18
2023-03-29T02:43:17.087Z,90.32
2023-03-29T02:45:45.005Z,90.90
2023-03-29T02:48:17.463Z,90.80
2023-03-29T02:50:47.700Z,91.12
2023-03-29T02:53:18.201Z,91.10
2023-03-29T02:55:46.233Z,91.14
2023-03-29T02:58:15.549Z,91.38
2023-03-29T03:00:45.817Z,91.51
2023-03-29T03:03:13.463Z,91.49
2023-03-29T03:05:40.142Z,91.55
2023-03-29T03:08:07.743Z,91.74
2023-03-29T03:10:35.705Z,91.96
2023-03-29T03:13:02.966Z,91.84
2023-03-29T03:15:31.166Z,91.94
2023-03-29T03:17:57.960Z,92.22
2023-03-29T03:20:24.711Z,92.24
2023-03-29T03:22:51.350Z,92.32
2023-03-29T03:25:21.195Z,92.41
2023-03-29T03:27:49.778Z,92.50
2023-03-29T03:30:17.442Z,92.57
2023-03-29T03:32:44.741Z,92.74
2023-03-29T03:35:12.583Z,92.67
2023-03-29T03:37:40.177Z,92.72
2023-03-29T03:40:09.034Z,93.06
2023-03-29T03:42:35.826Z,93.09
2023-03-29T03:45:02.567Z,93.36
2023-03-29T03:47:29.356Z,93.40
2023-03-29T03:49:56.486Z,93.74
2023-03-29T03:52:23.395Z,93.44
2023-03-29T03:54:50.342Z,93.64
2023-03-29T03:57:17.542Z,93.69
2023-03-29T03:59:44.313Z,93.84
2023-03-29T04:02:11.249Z,94.01
2023-03-29T04:04:38.087Z,94.10
2023-03-29T04:07:04.865Z,94.12
2023-03-29T04:09:33.405Z,94.19
2023-03-29T04:12:01.629Z,94.18
2023-03-29T04:14:28.607Z,94.10
2023-03-29T04:16:55.787Z,94.25
2023-03-29T04:19:23.140Z,94.34
2023-03-29T04:21:51.299Z,94.51
2023-03-29T04:24:17.988Z,94.69
2023-03-29T04:26:44.719Z,95.04
2023-03-29T04:29:11.849Z,95.25
2023-03-29T04:31:38.588Z,95.55
2023-03-29T04:34:05.310Z,95.71
2023-03-29T04:36:32.108Z,95.89
2023-03-29T04:39:01.507Z,96.25
2023-03-29T04:41:29.052Z,96.54
2023-03-29T04:43:56.264Z,96.95
2023-03-29T04:46:26.671Z,97.02
2023-03-29T04:48:54.318Z,97.51
2023-03-29T04:51:22.465Z,97.65
2023-03-29T04:53:50.534Z,97.69
2023-03-29T04:56:17.436Z,97.91
2023-03-29T04:58:44.676Z,98.03
2023-03-29T05:01:11.604Z,98.24
2023-03-29T05:03:38.534Z,98.49
2023-03-29T05:06:09.409Z,98.59
2023-03-29T05:08:40.163Z,98.78
2023-03-29T05:11:08.979Z,98.89
2023-03-29T05:13:36.205Z,99.16
2023-03-29T05:16:04.410Z,99.46
2023-03-29T05:18:31.966Z,99.68
2023-03-29T05:20:59.835Z,99.77
2023-03-29T05:23:28.894Z,100.00
2023-03-29T05:25:55.618Z,99.96
2023-03-29T05:28:23.006Z,100.00
2023-03-29T05:31:01.249Z,100.00
2023-03-29T05:33:28.240Z,100.00
2023-03-29T05:36:02.544Z,100.00
2023-03-29T05:38:30.227Z,100.00
2023-03-29T05:40:57.618Z,100.00
2023-03-29T05:43:24.339Z,100.00
2023-03-29T05:45:56.370Z,100.00
2023-03-29T05:48:23.971Z,100.00
2023-03-29T05:50:52.366Z,100.00
2023-03-29T05:53:20.052Z,100.00
2023-03-29T05:55:47.369Z,100.00
2023-03-29T05:58:15.663Z,100.00
2023-03-29T06:00:42.921Z,100.00
2023-03-29T06:03:21.542Z,100.00
2023-03-29T06:05:59.331Z,100.00
2023-03-29T06:08:27.693Z,100.00
2023-03-29T06:11:10.928Z,100.00
2023-03-29T06:13:39.053Z,100.00
2023-03-29T06:16:13.525Z,100.00
2023-03-29T06:18:41.204Z,100.00
2023-03-29T06:21:09.406Z,100.00
2023-03-29T06:23:36.989Z,100.00
2023-03-29T06:26:04.034Z,100.00
2023-03-29T06:28:30.699Z,100.00
2023-03-29T06:31:02.725Z,100.00
2023-03-29T06:33:30.933Z,100.00
2023-03-29T06:35:58.172Z,100.00
2023-03-29T06:38:26.821Z,100.00
2023-03-29T06:41:02.455Z,100.00
2023-03-29T06:43:29.536Z,100.00
2023-03-29T06:45:56.352Z,100.00
2023-03-29T06:48:23.033Z,100.00
2023-03-29T06:50:49.810Z,100.00
2023-03-29T06:53:17.106Z,100.00
2023-03-29T06:55:43.836Z,100.00
2023-03-29T06:58:11.140Z,100.00
2023-03-29T07:00:39.281Z,100.00
2023-03-29T07:03:08.125Z,100.00
2023-03-29T07:05:36.577Z,100.00
2023-03-29T07:08:06.378Z,100.00
2023-03-29T07:10:38.374Z,100.00
2023-03-29T07:13:07.093Z,100.00
2023-03-29T07:15:33.900Z,100.00
2023-03-29T07:18:02.625Z,100.00
2023-03-29T07:20:29.365Z,100.00
2023-03-29T07:22:56.127Z,100.00
2023-03-29T07:25:24.200Z,100.00
2023-03-29T07:27:52.217Z,100.00
2023-03-29T07:30:23.685Z,100.00
2023-03-29T07:32:52.449Z,100.00
2023-03-29T07:35:19.163Z,100.00
2023-03-29T07:37:46.471Z,100.00
2023-03-29T07:40:18.907Z,100.00
2023-03-29T07:42:46.770Z,100.00
2023-03-29T07:45:16.439Z,100.00
2023-03-29T07:47:44.718Z,100.00
2023-03-29T07:50:12.248Z,100.00
2023-03-29T07:52:39.724Z,100.00
2023-03-29T07:55:08.714Z,100.00
2023-03-29T07:57:35.995Z,100.00
2023-03-29T08:00:16.038Z,100.00
2023-03-29T08:02:44.454Z,100.00
2023-03-29T08:05:13.086Z,100.00
2023-03-29T08:07:41.410Z,100.00
2023-03-29T08:10:13.863Z,100.00
2023-03-29T08:12:41.241Z,100.00
2023-03-29T08:15:08.807Z,100.00
2023-03-29T08:17:36.328Z,100.00
2023-03-29T08:20:05.988Z,100.00
2023-03-29T08:22:34.217Z,100.00
2023-03-29T08:25:00.925Z,100.00
2023-03-29T08:27:27.575Z,100.00
2023-03-29T08:29:54.434Z,100.00
2023-03-29T08:32:21.474Z,100.00
2023-03-29T08:34:48.345Z,100.00
2023-03-29T08:37:15.033Z,100.00
2023-03-29T08:39:41.925Z,100.00
2023-03-29T08:42:27.183Z,100.00
2023-03-29T08:44:59.531Z,100.00
2023-03-29T08:47:44.483Z,100.00
2023-03-29T08:50:13.955Z,100.00
2023-03-29T08:52:46.774Z,100.00
2023-03-29T08:55:42.306Z,100.00
2023-03-29T08:58:17.253Z,100.00
2023-03-29T09:00:55.426Z,100.00
2023-03-29T09:03:34.354Z,100.00
2023-03-29T09:06:07.770Z,100.00
2023-03-29T09:08:54.897Z,100.00
2023-03-29T09:11:24.428Z,100.00
2023-03-29T09:13:57.727Z,100.00
2023-03-29T09:16:24.486Z,100.00
2023-03-29T09:19:10.229Z,100.00
2023-03-29T09:21:57.134Z,100.00
2023-03-29T09:24:52.799Z,100.00
2023-03-29T09:27:28.501Z,100.00
2023-03-29T09:30:25.899Z,100.00
2023-03-29T09:33:14.321Z,100.00
2023-03-29T09:35:47.289Z,100.00
2023-03-29T09:38:16.185Z,100.00
2023-03-29T09:40:51.467Z,100.00
2023-03-29T09:43:27.082Z,100.00
2023-03-29T09:45:57.304Z,100.00
2023-03-29T09:48:27.134Z,100.00
2023-03-29T09:50:54.226Z,100.00
2023-03-29T09:53:21.924Z,100.00
2023-03-29T09:55:50.641Z,100.00
2023-03-29T09:58:22.692Z,100.00
2023-03-29T10:00:50.064Z,100.00
2023-03-29T10:03:31.232Z,100.00
2023-03-29T10:06:01.653Z,100.00
2023-03-29T10:08:59.331Z,100.00
2023-03-29T10:11:34.797Z,100.00
2023-03-29T10:14:06.564Z,100.00
2023-03-29T10:16:41.565Z,100.00
2023-03-29T10:19:28.451Z,100.00
2023-03-29T10:22:01.209Z,100.00
2023-03-29T10:24:28.375Z,100.00
2023-03-29T10:27:00.189Z,100.00
2023-03-29T10:29:27.949Z,100.00
2023-03-29T10:31:55.250Z,100.00
2023-03-29T10:34:26.174Z,100.00
2023-03-29T10:36:59.913Z,100.00
2023-03-29T10:39:34.134Z,100.00
2023-03-29T10:42:03.814Z,100.00
2023-03-29T10:44:33.372Z,100.00
2023-03-29T10:47:20.440Z,100.00
2023-03-29T10:49:56.455Z,100.00
2023-03-29T10:52:23.758Z,100.00
2023-03-29T10:54:52.740Z,100.00
2023-03-29T10:57:31.066Z,100.00
2023-03-29T11:00:18.715Z,100.00
2023-03-29T11:03:14.325Z,100.00
2023-03-29T11:05:52.529Z,100.00
2023-03-29T11:08:35.417Z,100.00
2023-03-29T11:11:11.023Z,100.00
2023-03-29T11:14:05.414Z,100.00
2023-03-29T11:16:50.141Z,100.00
2023-03-29T11:19:19.764Z,100.00
2023-03-29T11:21:59.288Z,100.00
2023-03-29T11:24:57.577Z,100.00
2023-03-29T11:27:38.835Z,100.00
2023-03-29T11:30:08.699Z,100.00
2023-03-29T11:33:03.209Z,100.00
2023-03-29T11:35:34.547Z,100.00
2023-03-29T11:38:07.085Z,100.00
2023-03-29T11:41:20.201Z,100.00
2023-03-29T11:43:56.302Z,100.00
2023-03-29T11:46:34.509Z,100.00
2023-03-29T11:49:32.274Z,100.00
2023-03-29T11:52:23.386Z,100.00
2023-03-29T11:55:13.308Z,100.00
2023-03-29T11:58:12.755Z,100.00
2023-03-29T12:00:45.707Z,100.00
2023-03-29T12:03:41.561Z,100.00
2023-03-29T12:06:18.979Z,100.00
2023-03-29T12:08:56.703Z,100.00
2023-03-29T12:11:27.226Z,100.00
2023-03-29T12:14:04.986Z,100.00
2023-03-29T12:16:37.983Z,100.00
2023-03-29T12:19:14.442Z,100.00
2023-03-29T12:21:42.432Z,100.00
2023-03-29T12:24:16.381Z,100.00
2023-03-29T12:27:10.670Z,100.00
2023-03-29T12:29:48.722Z,100.00
2023-03-29T12:32:40.818Z,100.00
2023-03-29T12:35:24.594Z,100.00
2023-03-29T12:38:10.274Z,100.00
2023-03-29T12:40:45.810Z,100.00
2023-03-29T12:43:20.746Z,100.00
2023-03-29T12:45:51.173Z,100.00
2023-03-29T12:48:22.367Z,100.00
2023-03-29T12:50:52.894Z,100.00
2023-03-29T12:53:26.685Z,100.00
2023-03-29T12:56:02.772Z,99.44
2023-03-29T12:59:09.504Z,97.89
2023-03-29T13:01:42.939Z,96.30
2023-03-29T13:04:20.183Z,95.25
2023-03-29T13:06:46.754Z,94.61
2023-03-29T13:09:48.731Z,94.31
2023-03-29T13:12:15.951Z,92.39
2023-03-29T13:14:46.431Z,91.04
2023-03-29T13:17:42.889Z,91.22
2023-03-29T13:20:32.107Z,91.11
2023-03-29T13:22:58.659Z,90.51
2023-03-29T13:25:44.704Z,90.25
2023-03-29T13:28:29.726Z,88.83
2023-03-29T13:31:48.883Z,87.86
2023-03-29T13:34:44.151Z,86.74
2023-03-29T13:37:21.001Z,85.30
2023-03-29T13:39:53.093Z,83.71
2023-03-29T13:42:26.269Z,83.32
2023-03-29T13:44:53.951Z,82.13
2023-03-29T13:47:33.097Z,80.89
2023-03-29T13:50:16.620Z,80.21
2023-03-29T13:52:59.596Z,80.27
2023-03-29T13:55:33.647Z,80.09
2023-03-29T13:58:14.600Z,79.30
2023-03-29T14:00:52.129Z,79.19
2023-03-29T14:03:26.279Z,77.96
2023-03-29T14:05:59.014Z,77.57
2023-03-29T14:08:36.712Z,76.24
2023-03-29T14:11:05.943Z,76.19
2023-03-29T14:13:33.435Z,76.03
2023-03-29T14:16:04.461Z,75.85
2023-03-29T14:18:40.551Z,74.03
2023-03-29T14:21:08.575Z,73.71
2023-03-29T14:23:37.777Z,73.62
2023-03-29T14:26:30.456Z,73.61
2023-03-29T14:28:58.996Z,73.78
2023-03-29T14:31:33.991Z,73.36
2023-03-29T14:34:02.968Z,73.44
2023-03-29T14:36:32.499Z,73.60
2023-03-29T14:39:19.336Z,73.53
2023-03-29T14:41:54.797Z,73.66
2023-03-29T14:44:24.280Z,73.12
2023-03-29T14:46:51.069Z,73.31
2023-03-29T14:49:19.626Z,72.85
2023-03-29T14:51:47.438Z,72.65
2023-03-29T14:54:25.034Z,72.06
2023-03-29T14:56:52.616Z,71.93
2023-03-29T14:59:37.146Z,71.73
2023-03-29T15:02:04.564Z,71.93
2023-03-29T15:04:36.036Z,70.31
2023-03-29T15:07:04.996Z,70.58
2023-03-29T15:09:34.695Z,70.53
2023-03-29T15:12:03.420Z,70.02
2023-03-29T15:14:36.999Z,69.91
2023-03-29T15:17:33.485Z,70.09
2023-03-29T15:20:11.330Z,69.82
2023-03-29T15:22:39.565Z,69.54
2023-03-29T15:25:17.628Z,68.95
2023-03-29T15:27:45.202Z,68.73
2023-03-29T15:30:15.178Z,69.07
2023-03-29T15:32:41.937Z,69.07
2023-03-29T15:35:22.492Z,68.34
2023-03-29T15:37:49.899Z,68.95
2023-03-29T15:40:18.650Z,68.89
2023-03-29T15:42:45.621Z,68.79
2023-03-29T15:45:17.744Z,69.17
2023-03-29T15:47:45.046Z,69.32
2023-03-29T15:50:11.870Z,69.54
2023-03-29T15:52:38.625Z,69.90
2023-03-29T15:55:05.739Z,69.87
2023-03-29T15:57:32.573Z,70.05
2023-03-29T15:59:59.619Z,70.14
2023-03-29T16:02:26.587Z,70.26
2023-03-29T16:04:53.663Z,70.38
2023-03-29T16:07:21.083Z,70.52
2023-03-29T16:09:47.851Z,70.71
2023-03-29T16:12:16.413Z,70.81
2023-03-29T16:14:43.405Z,70.58
2023-03-29T16:17:10.189Z,70.82
2023-03-29T16:19:36.815Z,70.83
2023-03-29T16:22:07.607Z,70.58
2023-03-29T16:24:35.019Z,70.56
2023-03-29T16:27:02.717Z,70.16
2023-03-29T16:29:30.205Z,70.28
2023-03-29T16:31:57.376Z,70.42
2023-03-29T16:34:24.177Z,70.40
2023-03-29T16:36:50.974Z,70.20
2023-03-29T16:39:18.382Z,70.10
2023-03-29T16:41:48.461Z,69.99
2023-03-29T16:44:23.853Z,69.90
2023-03-29T16:46:53.975Z,69.40
2023-03-29T16:49:20.966Z,69.29
2023-03-29T16:51:48.482Z,69.11
2023-03-29T16:54:17.280Z,69.07
2023-03-29T16:56:44.014Z,69.00
2023-03-29T16:59:12.055Z,69.03
2023-03-29T17:01:40.669Z,69.15
2023-03-29T17:04:07.801Z,68.96
2023-03-29T17:06:34.624Z,69.20
2023-03-29T17:09:01.301Z,69.37
2023-03-29T17:11:29.020Z,69.57
2023-03-29T17:13:56.179Z,69.52
2023-03-29T17:16:23.262Z,69.70
2023-03-29T17:18:50.073Z,69.69
2023-03-29T17:21:16.849Z,69.63
2023-03-29T17:23:43.533Z,69.53
2023-03-29T17:26:11.941Z,69.35
2023-03-29T17:28:38.950Z,69.36
2023-03-29T17:31:09.760Z,69.31
2023-03-29T17:33:37.419Z,69.38
2023-03-29T17:36:05.979Z,69.28
2023-03-29T17:38:34.321Z,69.51
2023-03-29T17:41:04.712Z,69.52
2023-03-29T17:43:31.951Z,69.48
2023-03-29T17:45:58.616Z,69.53
2023-03-29T17:48:26.103Z,69.53
2023-03-29T17:50:56.131Z,69.84
2023-03-29T17:53:23.116Z,70.07
2023-03-29T17:55:49.897Z,70.19
2023-03-29T17:58:16.732Z,70.32
2023-03-29T18:00:43.894Z,70.19
2023-03-29T18:03:11.180Z,70.20
2023-03-29T18:05:38.075Z,70.42
2023-03-29T18:08:05.002Z,70.52
2023-03-29T18:10:32.449Z,70.57
2023-03-29T18:12:59.063Z,70.76
2023-03-29T18:15:25.714Z,70.81
2023-03-29T18:17:52.440Z,70.93
2023-03-29T18:20:20.507Z,71.05
2023-03-29T18:22:47.316Z,70.91
2023-03-29T18:25:14.862Z,71.01
2023-03-29T18:27:41.663Z,71.23
2023-03-29T18:30:08.983Z,71.34
2023-03-29T18:32:36.422Z,71.36
2023-03-29T18:35:03.957Z,71.50
2023-03-29T18:37:31.104Z,71.52
2023-03-29T18:39:57.905Z,71.64
2023-03-29T18:42:24.550Z,71.70
2023-03-29T18:44:51.396Z,71.89
2023-03-29T18:47:18.464Z,71.98
2023-03-29T18:49:45.284Z,71.96
2023-03-29T18:52:12.222Z,72.16
2023-03-29T18:54:38.980Z,72.31
2023-03-29T18:57:05.721Z,72.38
2023-03-29T18:59:32.397Z,72.47
2023-03-29T19:01:59.157Z,72.65
2023-03-29T19:04:27.183Z,72.74
2023-03-29T19:06:55.596Z,72.72
2023-03-29T19:09:23.295Z,72.96
2023-03-29T19:11:49.915Z,73.09
2023-03-29T19:14:17.500Z,72.98
2023-03-29T19:16:44.272Z,73.12
2023-03-29T19:19:11.113Z,73.06
2023-03-29T19:21:38.609Z,73.24
2023-03-29T19:24:07.757Z,73.29
2023-03-29T19:26:35.433Z,73.16
2023-03-29T19:29:02.095Z,73.21
2023-03-29T19:31:28.832Z,73.39
2023-03-29T19:33:56.196Z,73.63
2023-03-29T19:36:23.080Z,73.50
2023-03-29T19:38:50.178Z,73.59
2023-03-29T19:41:16.939Z,73.96
2023-03-29T19:43:43.863Z,73.89
2023-03-29T19:46:12.456Z,74.05
2023-03-29T19:48:39.764Z,74.09
2023-03-29T19:51:06.881Z,74.20
2023-03-29T19:53:33.742Z,74.14
2023-03-29T19:56:01.986Z,74.50
2023-03-29T19:58:28.870Z,74.38
2023-03-29T20:00:59.540Z,74.67
2023-03-29T20:03:30.014Z,74.63
2023-03-29T20:05:57.167Z,74.61
2023-03-29T20:08:24.934Z,74.95
2023-03-29T20:10:59.530Z,75.15
2023-03-29T20:13:37.655Z,75.00
2023-03-29T20:16:15.000Z,75.31
2023-03-29T20:18:44.835Z,75.15
2023-03-29T20:21:17.103Z,75.40
2023-03-29T20:23:44.161Z,75.66
2023-03-29T20:26:11.109Z,75.45
2023-03-29T20:28:37.941Z,75.68
2023-03-29T20:31:07.197Z,75.93
2023-03-29T20:33:33.935Z,75.96
2023-03-29T20:36:00.951Z,76.06
2023-03-29T20:38:27.856Z,76.09
2023-03-29T20:40:55.441Z,76.19
2023-03-29T20:43:22.573Z,76.23
2023-03-29T20:45:53.947Z,76.45
2023-03-29T20:48:30.272Z,76.46
2023-03-29T20:50:57.785Z,76.46
2023-03-29T20:53:25.402Z,76.65
2023-03-29T20:55:52.857Z,76.91
2023-03-29T20:58:19.486Z,76.58
2023-03-29T21:00:48.458Z,76.58
2023-03-29T21:03:15.296Z,76.69
2023-03-29T21:05:43.472Z,76.90
2023-03-29T21:08:10.681Z,76.93
2023-03-29T21:10:37.509Z,76.90
2023-03-29T21:13:04.233Z,77.03
2023-03-29T21:15:32.019Z,77.01
2023-03-29T21:17:58.938Z,77.10
2023-03-29T21:20:25.875Z,77.08
2023-03-29T21:22:52.595Z,77.40
2023-03-29T21:25:19.503Z,77.37
2023-03-29T21:27:46.409Z,77.30
2023-03-29T21:30:13.694Z,77.60
2023-03-29T21:32:41.229Z,77.61
2023-03-29T21:35:08.730Z,77.64
2023-03-29T21:37:42.531Z,78.01
2023-03-29T21:40:10.787Z,77.90
2023-03-29T21:42:37.498Z,78.05
2023-03-29T21:45:04.794Z,77.83
2023-03-29T21:47:31.665Z,78.07
2023-03-29T21:49:58.517Z,78.24
2023-03-29T21:52:25.524Z,78.26
2023-03-29T21:54:52.278Z,78.44
2023-03-29T21:57:20.113Z,78.60
2023-03-29T21:59:47.876Z,78.79
2023-03-29T22:02:14.672Z,78.91
2023-03-29T22:04:46.132Z,78.87
2023-03-29T22:07:12.856Z,78.92
2023-03-29T22:09:41.840Z,78.88
2023-03-29T22:12:10.032Z,78.75
2023-03-29T22:14:36.781Z,78.76
2023-03-29T22:17:07.944Z,79.01
2023-03-29T22:19:41.806Z,79.08
2023-03-29T22:22:13.800Z,78.90
2023-03-29T22:24:42.017Z,79.16
2023-03-29T22:27:09.302Z,79.25
2023-03-29T22:29:36.870Z,79.25
2023-03-29T22:32:03.902Z,79.43
2023-03-29T22:34:30.588Z,79.62
2023-03-29T22:36:57.247Z,79.51
2023-03-29T22:39:23.925Z,79.94
2023-03-29T22:41:50.768Z,79.81
2023-03-29T22:44:17.478Z,79.99
2023-03-29T22:46:44.143Z,80.05
2023-03-29T22:49:10.788Z,80.27
2023-03-29T22:51:37.510Z,80.39
2023-03-29T22:54:04.321Z,80.27
2023-03-29T22:56:31.102Z,80.71
2023-03-29T22:58:57.881Z,80.75
2023-03-29T23:01:24.663Z,80.81
2023-03-29T23:03:51.824Z,80.96
2023-03-29T23:06:18.567Z,81.09
2023-03-29T23:08:45.441Z,81.42
2023-03-29T23:11:12.333Z,81.52
2023-03-29T23:13:39.031Z,81.58
2023-03-29T23:16:06.105Z,81.84
2023-03-29T23:18:35.025Z,82.25
2023-03-29T23:21:02.466Z,82.43
2023-03-29T23:23:29.322Z,82.95
2023-03-29T23:25:56.193Z,83.07
2023-03-29T23:28:25.137Z,83.46
2023-03-29T23:31:00.622Z,83.99
2023-03-29T23:33:28.811Z,84.45
2023-03-29T23:35:55.431Z,84.60
2023-03-29T23:38:22.867Z,84.94
2023-03-29T23:40:58.961Z,85.71
2023-03-29T23:43:27.354Z,85.76
2023-03-29T23:45:57.925Z,86.03
2023-03-29T23:48:24.870Z,86.40
2023-03-29T23:50:52.083Z,86.60
2023-03-29T23:53:19.949Z,87.02
2023-03-29T23:55:48.380Z,87.16
2023-03-29T23:58:16.553Z,87.47
